createdAt,value
2016-11-29T09:58:13.544Z,1036.4
2016-11-29T09:58:39.101Z,1036.4
2016-11-29T09:59:04.638Z,1036.37
2016-11-29T09:59:30.165Z,1036.38
2016-11-29T09:59:55.704Z,1036.36
2016-11-29T10:00:21.266Z,1036.36
2016-11-29T10:00:46.904Z,1036.41
2016-11-29T10:01:12.445Z,1036.39
2016-11-29T10:01:37.985Z,1036.35
2016-11-29T10:02:03.520Z,1036.43
2016-11-29T10:02:29.054Z,1036.42
2016-11-29T10:02:54.640Z,1036.43
2016-11-29T10:03:20.234Z,1036.42
2016-11-29T10:03:45.768Z,1036.39
2016-11-29T10:04:11.287Z,1036.38
2016-11-29T10:04:36.825Z,1036.38
2016-11-29T10:05:02.464Z,1036.42
2016-11-29T10:05:28.019Z,1036.38
2016-11-29T10:05:53.565Z,1036.4
2016-11-29T10:06:19.111Z,1036.38
2016-11-29T10:06:44.781Z,1036.37
2016-11-29T10:07:10.334Z,1036.38
2016-11-29T10:07:35.866Z,1036.37
2016-11-29T10:08:49.246Z,1036.4
2016-11-29T10:09:14.755Z,1036.38
2016-11-29T10:09:40.309Z,1036.39
2016-11-29T10:10:05.872Z,1036.43
2016-11-29T10:10:31.394Z,1036.37
2016-11-29T10:10:56.932Z,1036.38
2016-11-29T10:11:22.505Z,1036.38
2016-11-29T10:11:48.036Z,1036.34
2016-11-29T10:12:13.587Z,1036.36
2016-11-29T10:12:39.112Z,1036.28
2016-11-29T10:13:04.704Z,1036.31
2016-11-29T10:13:30.230Z,1036.34
2016-11-29T10:13:55.767Z,1036.3
2016-11-29T10:14:21.298Z,1036.29
2016-11-29T10:14:46.840Z,1036.31
2016-11-29T10:15:12.885Z,1036.3
2016-11-29T10:15:38.523Z,1036.28
2016-11-29T10:16:04.048Z,1036.32
2016-11-29T10:16:29.632Z,1036.3
2016-11-29T10:16:55.158Z,1036.3
2016-11-29T10:17:21.616Z,1036.31
2016-11-29T10:17:47.149Z,1036.26
2016-11-29T10:18:12.686Z,1036.29
2016-11-29T10:18:38.200Z,1036.27
2016-11-29T10:19:03.786Z,1036.26
2016-11-29T10:19:29.331Z,1036.21
2016-11-29T10:19:54.865Z,1036.21
2016-11-29T10:20:20.425Z,1036.24
2016-11-29T10:20:45.950Z,1036.21
2016-11-29T10:21:11.501Z,1036.26
2016-11-29T10:21:37.027Z,1036.25
2016-11-29T10:22:02.644Z,1036.27
2016-11-29T10:22:28.186Z,1036.24
2016-11-29T10:22:53.719Z,1036.21
2016-11-29T10:23:19.257Z,1036.24
2016-11-29T10:23:44.818Z,1036.22
2016-11-29T10:24:10.373Z,1036.18
2016-11-29T10:24:35.905Z,1036.22
2016-11-29T10:25:01.430Z,1036.16
2016-11-29T10:25:26.957Z,1036.15
2016-11-29T10:25:52.517Z,1036.15
2016-11-29T10:26:18.036Z,1036.18
2016-11-29T10:26:43.642Z,1036.16
2016-11-29T10:27:09.213Z,1036.13
2016-11-29T10:27:34.786Z,1036.19
2016-11-29T10:28:53.326Z,1036.19
2016-11-29T10:29:18.866Z,1036.21
2016-11-29T10:29:44.517Z,1036.22
2016-11-29T10:30:10.046Z,1036.21
2016-11-29T10:30:35.586Z,1036.21
2016-11-29T10:31:01.100Z,1036.21
2016-11-29T10:31:26.612Z,1036.21
2016-11-29T10:31:52.156Z,1036.21
2016-11-29T10:32:17.683Z,1036.17
2016-11-29T10:32:43.220Z,1036.16
2016-11-29T10:33:08.782Z,1036.15
2016-11-29T10:33:34.317Z,1036.13
2016-11-29T10:33:59.833Z,1036.14
2016-11-29T10:34:25.383Z,1036.11
2016-11-29T10:34:50.926Z,1036.16
2016-11-29T10:35:16.463Z,1036.14
2016-11-29T10:35:42.083Z,1036.1
2016-11-29T10:36:07.598Z,1036.1
2016-11-29T10:36:33.139Z,1036.1
2016-11-29T10:36:58.683Z,1036.11
2016-11-29T10:37:24.201Z,1036.14
2016-11-29T10:37:49.751Z,1036.16
2016-11-29T10:38:15.257Z,1036.11
2016-11-29T10:38:40.803Z,1036.11
2016-11-29T10:39:06.337Z,1036.1
2016-11-29T10:39:31.856Z,1036.13
2016-11-29T10:39:57.409Z,1036.11
2016-11-29T10:40:22.935Z,1036.11
2016-11-29T10:40:48.572Z,1036.1
2016-11-29T10:41:14.095Z,1036.08
2016-11-29T10:41:39.649Z,1036.04
2016-11-29T10:42:05.175Z,1036.02
2016-11-29T10:42:30.726Z,1036.07
2016-11-29T10:42:56.257Z,1036.04
2016-11-29T10:43:21.801Z,1036.03
2016-11-29T10:43:47.327Z,1036.03
2016-11-29T10:44:12.936Z,1036.03
2016-11-29T10:44:38.481Z,1036.03
2016-11-29T10:45:04.003Z,1036.03
2016-11-29T10:45:29.550Z,1036.05
2016-11-29T10:45:55.071Z,1036.1
2016-11-29T10:46:20.646Z,1036.08
2016-11-29T10:46:46.234Z,1036.11
2016-11-29T10:47:11.769Z,1036.08
2016-11-29T10:47:37.301Z,1036.06
2016-11-29T10:48:02.830Z,1036.1
2016-11-29T10:48:28.383Z,1036.07
2016-11-29T10:48:53.998Z,1036.09
2016-11-29T10:49:19.538Z,1036.07
2016-11-29T10:49:45.067Z,1036.1
2016-11-29T10:50:10.626Z,1036.07
2016-11-29T10:50:36.157Z,1036.06
2016-11-29T10:51:01.773Z,1036.07
2016-11-29T10:51:27.392Z,1036.07
2016-11-29T10:51:52.931Z,1036.05
2016-11-29T10:52:18.635Z,1036.06
2016-11-29T10:52:44.178Z,1036.04
2016-11-29T10:53:09.725Z,1036.06
2016-11-29T10:53:35.398Z,1036.06
2016-11-29T10:54:00.976Z,1036.03
2016-11-29T10:54:26.514Z,1036.07
2016-11-29T10:54:52.107Z,1036.06
2016-11-29T10:55:17.628Z,1036.09
2016-11-29T10:55:43.179Z,1036.04
2016-11-29T10:56:08.739Z,1036.03
2016-11-29T10:56:34.278Z,1036
2016-11-29T10:56:59.823Z,1036.04
2016-11-29T10:57:25.338Z,1036
2016-11-29T10:57:50.899Z,1036.06
2016-11-29T10:58:16.448Z,1036.04
2016-11-29T10:58:41.982Z,1036.02
2016-11-29T10:59:07.512Z,1036
2016-11-29T10:59:33.043Z,1036.02
2016-11-29T10:59:58.597Z,1036
2016-11-29T11:00:24.117Z,1035.94
2016-11-29T11:00:49.672Z,1035.99
2016-11-29T11:01:15.195Z,1035.99
2016-11-29T11:01:40.810Z,1035.99
2016-11-29T11:02:06.380Z,1035.99
2016-11-29T11:02:31.907Z,1035.96
2016-11-29T11:02:57.461Z,1035.96
2016-11-29T11:03:23.019Z,1035.94
2016-11-29T11:03:48.603Z,1035.93
2016-11-29T11:04:14.155Z,1035.88
2016-11-29T11:04:39.686Z,1035.94
2016-11-29T11:05:05.212Z,1035.88
2016-11-29T11:05:30.743Z,1035.9
2016-11-29T11:05:56.356Z,1035.9
2016-11-29T11:06:21.870Z,1035.93
2016-11-29T11:06:47.399Z,1035.88
2016-11-29T11:07:12.939Z,1035.86
2016-11-29T11:07:38.475Z,1035.86
2016-11-29T11:08:04.004Z,1035.87
2016-11-29T11:08:29.521Z,1035.86
2016-11-29T11:08:55.051Z,1035.85
2016-11-29T11:09:20.685Z,1035.82
2016-11-29T11:09:46.210Z,1035.81
2016-11-29T11:10:11.770Z,1035.85
2016-11-29T11:10:37.306Z,1035.82
2016-11-29T11:11:02.831Z,1035.81
2016-11-29T11:11:28.363Z,1035.78
2016-11-29T11:11:53.925Z,1035.76
2016-11-29T11:12:19.456Z,1035.82
2016-11-29T11:12:44.988Z,1035.75
2016-11-29T11:13:10.521Z,1035.78
2016-11-29T11:13:36.056Z,1035.77
2016-11-29T11:14:01.615Z,1035.74
2016-11-29T11:14:27.152Z,1035.77
2016-11-29T11:14:52.694Z,1035.77
2016-11-29T11:15:18.338Z,1035.76
2016-11-29T11:15:43.870Z,1035.81
2016-11-29T11:16:09.414Z,1035.76
2016-11-29T11:16:34.952Z,1035.8
2016-11-29T11:17:00.503Z,1035.76
2016-11-29T11:17:26.069Z,1035.77
2016-11-29T11:17:51.589Z,1035.77
2016-11-29T11:18:17.117Z,1035.8
2016-11-29T11:18:42.630Z,1035.79
2016-11-29T11:19:08.155Z,1035.8
2016-11-29T11:19:33.746Z,1035.75
2016-11-29T11:19:59.246Z,1035.75
2016-11-29T11:20:24.815Z,1035.77
2016-11-29T11:20:50.342Z,1035.78
2016-11-29T11:21:15.889Z,1035.75
2016-11-29T11:21:41.437Z,1035.74
2016-11-29T11:22:06.957Z,1035.71
2016-11-29T11:22:32.530Z,1035.7
2016-11-29T11:22:58.129Z,1035.68
2016-11-29T11:23:23.660Z,1035.73
2016-11-29T11:23:49.216Z,1035.68
2016-11-29T11:24:14.728Z,1035.7
2016-11-29T11:24:40.273Z,1035.69
2016-11-29T11:25:05.803Z,1035.68
2016-11-29T11:25:31.342Z,1035.73
2016-11-29T11:25:56.933Z,1035.67
2016-11-29T11:26:22.515Z,1035.7
2016-11-29T11:26:48.048Z,1035.7
2016-11-29T11:27:13.651Z,1035.7
2016-11-29T11:27:39.207Z,1035.68
2016-11-29T11:28:04.755Z,1035.66
2016-11-29T11:28:30.293Z,1035.66
2016-11-29T11:28:55.845Z,1035.67
2016-11-29T11:29:21.461Z,1035.69
2016-11-29T11:29:47.093Z,1035.67
2016-11-29T11:30:12.640Z,1035.71
2016-11-29T11:30:38.158Z,1035.7
2016-11-29T11:31:03.722Z,1035.62
2016-11-29T11:31:29.240Z,1035.63
2016-11-29T11:31:54.859Z,1035.61
2016-11-29T11:32:20.403Z,1035.61
2016-11-29T11:32:45.948Z,1035.62
2016-11-29T11:33:11.502Z,1035.59
2016-11-29T11:33:37.047Z,1035.58
2016-11-29T11:34:02.606Z,1035.58
2016-11-29T11:34:28.135Z,1035.57
2016-11-29T11:34:53.666Z,1035.56
2016-11-29T11:35:19.275Z,1035.58
2016-11-29T11:35:44.808Z,1035.6
2016-11-29T11:36:10.421Z,1035.58
2016-11-29T11:36:36.068Z,1035.6
2016-11-29T11:37:01.600Z,1035.56
2016-11-29T11:37:27.112Z,1035.56
2016-11-29T11:37:52.618Z,1035.56
2016-11-29T11:38:18.158Z,1035.53
2016-11-29T11:38:43.698Z,1035.54
2016-11-29T11:39:09.223Z,1035.54
2016-11-29T11:39:34.771Z,1035.54
2016-11-29T11:40:00.389Z,1035.51
2016-11-29T11:40:25.944Z,1035.5
2016-11-29T11:40:51.474Z,1035.5
2016-11-29T11:41:17.119Z,1035.53
2016-11-29T11:41:42.665Z,1035.52
2016-11-29T11:42:08.197Z,1035.49
2016-11-29T11:42:34.003Z,1035.52
2016-11-29T11:42:59.527Z,1035.51
2016-11-29T11:43:25.050Z,1035.54
2016-11-29T11:43:50.795Z,1035.56
2016-11-29T11:44:16.345Z,1035.48
2016-11-29T11:44:41.862Z,1035.49
2016-11-29T11:45:07.390Z,1035.53
2016-11-29T11:45:32.946Z,1035.52
2016-11-29T11:45:58.497Z,1035.54
2016-11-29T11:46:24.090Z,1035.55
2016-11-29T11:46:49.602Z,1035.51
2016-11-29T11:47:15.136Z,1035.52
2016-11-29T11:47:40.657Z,1035.5
2016-11-29T11:48:06.335Z,1035.56
2016-11-29T11:48:31.934Z,1035.54
2016-11-29T11:48:57.431Z,1035.54
2016-11-29T11:49:22.961Z,1035.56
2016-11-29T11:49:48.598Z,1035.55
2016-11-29T11:50:14.140Z,1035.56
2016-11-29T11:50:39.695Z,1035.55
2016-11-29T11:51:05.306Z,1035.55
2016-11-29T11:51:30.864Z,1035.52
2016-11-29T11:51:56.391Z,1035.53
2016-11-29T11:52:21.931Z,1035.55
2016-11-29T11:52:47.507Z,1035.51
2016-11-29T11:53:13.051Z,1035.48
2016-11-29T11:53:38.591Z,1035.49
2016-11-29T11:54:04.133Z,1035.53
2016-11-29T11:54:29.668Z,1035.48
2016-11-29T11:54:55.227Z,1035.52
2016-11-29T11:55:20.829Z,1035.51
2016-11-29T11:55:46.365Z,1035.49
2016-11-29T11:56:11.885Z,1035.49
2016-11-29T11:56:37.408Z,1035.48
2016-11-29T11:57:02.954Z,1035.49
2016-11-29T11:57:28.483Z,1035.51
2016-11-29T11:57:54.123Z,1035.48
2016-11-29T11:58:19.676Z,1035.46
2016-11-29T11:58:45.216Z,1035.44
2016-11-29T11:59:10.733Z,1035.49
2016-11-29T11:59:36.282Z,1035.45
2016-11-29T12:00:01.847Z,1035.47
2016-11-29T12:00:27.427Z,1035.44
2016-11-29T12:00:52.957Z,1035.45
2016-11-29T12:01:18.504Z,1035.49
2016-11-29T12:01:44.010Z,1035.4
2016-11-29T12:02:09.581Z,1035.41
2016-11-29T12:02:35.115Z,1035.44
2016-11-29T12:03:00.689Z,1035.45
2016-11-29T12:03:26.227Z,1035.4
2016-11-29T12:03:51.780Z,1035.42
2016-11-29T12:04:17.329Z,1035.42
2016-11-29T12:04:42.869Z,1035.38
2016-11-29T12:05:08.429Z,1035.36
2016-11-29T12:05:33.915Z,1035.38
2016-11-29T12:05:59.512Z,1035.34
2016-11-29T12:06:25.045Z,1035.38
2016-11-29T12:06:50.615Z,1035.37
2016-11-29T12:07:16.136Z,1035.32
2016-11-29T12:07:41.670Z,1035.34
2016-11-29T12:08:07.199Z,1035.33
2016-11-29T12:08:32.701Z,1035.37
2016-11-29T12:08:58.247Z,1035.32
2016-11-29T12:09:23.768Z,1035.33
2016-11-29T12:09:49.314Z,1035.34
2016-11-29T12:10:14.863Z,1035.34
2016-11-29T12:10:40.389Z,1035.34
2016-11-29T12:11:05.951Z,1035.34
2016-11-29T12:11:31.463Z,1035.33
2016-11-29T12:11:57.059Z,1035.3
2016-11-29T12:12:22.632Z,1035.3
2016-11-29T12:12:48.167Z,1035.31
2016-11-29T12:13:13.746Z,1035.32
2016-11-29T12:13:39.372Z,1035.31
2016-11-29T12:14:04.899Z,1035.33
2016-11-29T12:14:30.459Z,1035.33
2016-11-29T12:14:55.995Z,1035.34
2016-11-29T12:15:21.591Z,1035.29
2016-11-29T12:15:47.264Z,1035.29
2016-11-29T12:16:12.792Z,1035.24
2016-11-29T12:16:38.378Z,1035.28
2016-11-29T12:17:03.931Z,1035.26
2016-11-29T12:17:29.478Z,1035.3
2016-11-29T12:17:55.011Z,1035.24
2016-11-29T12:18:20.589Z,1035.24
2016-11-29T12:18:46.107Z,1035.27
2016-11-29T12:19:11.695Z,1035.25
2016-11-29T12:19:37.248Z,1035.24
2016-11-29T12:20:02.785Z,1035.23
2016-11-29T12:20:28.336Z,1035.25
2016-11-29T12:20:53.859Z,1035.22
2016-11-29T12:21:19.473Z,1035.22
2016-11-29T12:21:45.040Z,1035.24
2016-11-29T12:22:10.569Z,1035.22
2016-11-29T12:22:36.096Z,1035.23
2016-11-29T12:23:01.641Z,1035.16
2016-11-29T12:23:27.173Z,1035.21
2016-11-29T12:23:52.691Z,1035.16
2016-11-29T12:24:18.310Z,1035.18
2016-11-29T12:24:43.860Z,1035.16
2016-11-29T12:25:09.400Z,1035.16
2016-11-29T12:25:34.953Z,1035.17
2016-11-29T12:26:00.533Z,1035.17
2016-11-29T12:26:26.037Z,1035.18
2016-11-29T12:26:51.581Z,1035.11
2016-11-29T12:27:17.117Z,1035.14
2016-11-29T12:27:42.661Z,1035.17
2016-11-29T12:28:08.219Z,1035.15
2016-11-29T12:28:33.754Z,1035.12
2016-11-29T12:28:59.297Z,1035.13
2016-11-29T12:29:24.848Z,1035.14
2016-11-29T12:29:50.425Z,1035.12
2016-11-29T12:30:16.022Z,1035.13
2016-11-29T12:30:41.630Z,1035.16
2016-11-29T12:31:07.179Z,1035.14
2016-11-29T12:31:32.711Z,1035.13
2016-11-29T12:31:58.305Z,1035.18
2016-11-29T12:32:23.831Z,1035.11
2016-11-29T12:32:49.371Z,1035.15
2016-11-29T12:33:14.918Z,1035.14
2016-11-29T12:33:40.552Z,1035.13
2016-11-29T12:34:06.152Z,1035.13
2016-11-29T12:34:31.720Z,1035.15
2016-11-29T12:34:57.272Z,1035.15
2016-11-29T12:35:22.993Z,1035.17
2016-11-29T12:35:48.532Z,1035.15
2016-11-29T12:36:14.051Z,1035.14
2016-11-29T12:36:39.618Z,1035.15
2016-11-29T12:37:05.152Z,1035.15
2016-11-29T12:37:30.710Z,1035.13
2016-11-29T12:37:56.235Z,1035.16
2016-11-29T12:38:21.811Z,1035.2
2016-11-29T12:38:47.360Z,1035.15
2016-11-29T12:39:12.881Z,1035.19
2016-11-29T12:39:38.398Z,1035.15
2016-11-29T12:40:03.949Z,1035.19
2016-11-29T12:40:29.505Z,1035.15
2016-11-29T12:40:55.019Z,1035.17
2016-11-29T12:41:20.555Z,1035.2
2016-11-29T12:41:46.116Z,1035.18
2016-11-29T12:42:11.642Z,1035.22
2016-11-29T12:42:37.179Z,1035.18
2016-11-29T12:43:02.801Z,1035.18
2016-11-29T12:43:28.358Z,1035.16
2016-11-29T12:43:53.903Z,1035.16
2016-11-29T12:44:19.439Z,1035.18
2016-11-29T12:44:44.968Z,1035.16
2016-11-29T12:45:10.561Z,1035.18
2016-11-29T12:45:36.131Z,1035.15
2016-11-29T12:46:01.685Z,1035.21
2016-11-29T12:46:27.200Z,1035.19
2016-11-29T12:46:52.721Z,1035.14
2016-11-29T12:47:18.246Z,1035.22
2016-11-29T12:47:43.908Z,1035.22
2016-11-29T12:48:09.447Z,1035.16
2016-11-29T12:48:34.965Z,1035.14
2016-11-29T12:49:00.488Z,1035.15
2016-11-29T12:49:26.033Z,1035.16
2016-11-29T12:49:51.577Z,1035.14
2016-11-29T12:50:17.099Z,1035.15
2016-11-29T12:50:42.629Z,1035.18
2016-11-29T12:51:08.145Z,1035.14
2016-11-29T12:51:33.677Z,1035.15
2016-11-29T12:51:59.228Z,1035.11
2016-11-29T12:52:24.780Z,1035.04
2016-11-29T12:52:50.380Z,1035.1
2016-11-29T12:53:15.921Z,1035.07
2016-11-29T12:53:41.467Z,1035.05
2016-11-29T12:54:07.048Z,1035.05
2016-11-29T12:54:32.590Z,1035.04
2016-11-29T12:54:58.116Z,1035.02
2016-11-29T12:55:23.654Z,1035.04
2016-11-29T12:55:49.206Z,1035.06
2016-11-29T12:56:14.802Z,1035.01
2016-11-29T12:56:40.335Z,1035.01
2016-11-29T12:57:05.886Z,1035.04
2016-11-29T12:57:31.419Z,1035.05
2016-11-29T12:57:56.934Z,1035.01
2016-11-29T12:58:22.511Z,1035
2016-11-29T12:58:48.054Z,1035.03
2016-11-29T12:59:13.587Z,1034.98
2016-11-29T12:59:39.124Z,1035.01
2016-11-29T13:00:04.626Z,1035
2016-11-29T13:00:30.170Z,1035.04
2016-11-29T13:00:55.725Z,1035.02
2016-11-29T13:01:21.260Z,1035.05
2016-11-29T13:01:46.804Z,1035.04
2016-11-29T13:02:12.337Z,1035
2016-11-29T13:02:37.859Z,1035
2016-11-29T13:03:03.407Z,1035
2016-11-29T13:03:28.966Z,1035
2016-11-29T13:03:54.541Z,1034.99
2016-11-29T13:04:20.202Z,1035.03
2016-11-29T13:04:45.758Z,1035.01
2016-11-29T13:05:11.415Z,1035.02
2016-11-29T13:05:36.977Z,1035.02
2016-11-29T13:06:02.516Z,1035.03
2016-11-29T13:06:28.053Z,1035.01
2016-11-29T13:06:53.592Z,1035.02
2016-11-29T13:07:19.150Z,1034.98
2016-11-29T13:07:44.713Z,1034.97
2016-11-29T13:08:10.338Z,1034.97
2016-11-29T13:08:35.867Z,1034.96
2016-11-29T13:09:01.392Z,1034.97
2016-11-29T13:09:26.943Z,1034.97
2016-11-29T13:09:52.513Z,1034.92
2016-11-29T13:10:18.167Z,1034.92
2016-11-29T13:10:43.726Z,1034.94
2016-11-29T13:11:09.375Z,1034.88
2016-11-29T13:11:34.984Z,1034.9
2016-11-29T13:12:00.513Z,1034.89
2016-11-29T13:12:26.049Z,1034.84
2016-11-29T13:12:51.577Z,1034.87
2016-11-29T13:13:17.094Z,1034.86
2016-11-29T13:13:42.720Z,1034.91
2016-11-29T13:14:08.348Z,1034.9
2016-11-29T13:14:33.896Z,1034.92
2016-11-29T13:14:59.505Z,1034.86
2016-11-29T13:15:25.101Z,1034.91
2016-11-29T13:15:50.625Z,1034.93
2016-11-29T13:16:16.165Z,1034.89
2016-11-29T13:16:41.706Z,1034.9
2016-11-29T13:17:07.347Z,1034.87
2016-11-29T13:17:32.878Z,1034.87
2016-11-29T13:17:58.434Z,1034.87
2016-11-29T13:18:23.954Z,1034.86
2016-11-29T13:18:49.481Z,1034.86
2016-11-29T13:19:15.009Z,1034.84
2016-11-29T13:19:40.674Z,1034.85
2016-11-29T13:20:06.241Z,1034.84
2016-11-29T13:20:31.741Z,1034.86
2016-11-29T13:20:57.274Z,1034.82
2016-11-29T13:21:22.818Z,1034.84
2016-11-29T13:21:48.383Z,1034.87
2016-11-29T13:22:13.989Z,1034.84
2016-11-29T13:22:39.519Z,1034.87
2016-11-29T13:23:05.046Z,1034.82
2016-11-29T13:23:30.598Z,1034.84
2016-11-29T13:23:56.119Z,1034.82
2016-11-29T13:24:21.704Z,1034.8
2016-11-29T13:24:47.326Z,1034.77
2016-11-29T13:25:12.892Z,1034.81
2016-11-29T13:25:38.431Z,1034.79
2016-11-29T13:26:03.958Z,1034.77
2016-11-29T13:26:29.512Z,1034.77
2016-11-29T13:26:55.068Z,1034.75
2016-11-29T13:27:20.607Z,1034.77
2016-11-29T13:27:46.165Z,1034.82
2016-11-29T13:28:11.745Z,1034.78
2016-11-29T13:28:37.251Z,1034.8
2016-11-29T13:29:02.886Z,1034.75
2016-11-29T13:29:28.439Z,1034.75
2016-11-29T13:29:54.005Z,1034.73
2016-11-29T13:30:19.563Z,1034.77
2016-11-29T13:30:45.110Z,1034.76
2016-11-29T13:31:10.654Z,1034.75
2016-11-29T13:31:36.211Z,1034.78
2016-11-29T13:32:01.719Z,1034.75
2016-11-29T13:32:27.283Z,1034.76
2016-11-29T13:32:52.817Z,1034.72
2016-11-29T13:33:18.353Z,1034.76
2016-11-29T13:33:44.817Z,1034.74
2016-11-29T13:34:10.364Z,1034.79
2016-11-29T13:34:35.891Z,1034.72
2016-11-29T13:35:01.412Z,1034.81
2016-11-29T13:35:26.926Z,1034.75
2016-11-29T13:35:52.560Z,1034.74
2016-11-29T13:36:18.198Z,1034.72
2016-11-29T13:36:43.728Z,1034.75
2016-11-29T13:37:09.271Z,1034.74
2016-11-29T13:37:34.961Z,1034.71
2016-11-29T13:38:00.481Z,1034.74
2016-11-29T13:38:26.017Z,1034.75
2016-11-29T13:38:51.545Z,1034.74
2016-11-29T13:39:17.084Z,1034.74
2016-11-29T13:39:42.630Z,1034.77
2016-11-29T13:40:08.158Z,1034.71
2016-11-29T13:40:33.732Z,1034.72
2016-11-29T13:40:59.299Z,1034.72
2016-11-29T13:41:24.835Z,1034.73
2016-11-29T13:41:50.427Z,1034.71
2016-11-29T13:42:15.978Z,1034.7
2016-11-29T13:42:41.523Z,1034.71
2016-11-29T13:43:07.054Z,1034.74
2016-11-29T13:43:32.599Z,1034.7
2016-11-29T13:43:58.158Z,1034.73
2016-11-29T13:44:23.700Z,1034.69
2016-11-29T13:44:49.268Z,1034.66
2016-11-29T13:45:14.826Z,1034.69
2016-11-29T13:45:40.347Z,1034.69
2016-11-29T13:46:05.896Z,1034.69
2016-11-29T13:46:31.435Z,1034.68
2016-11-29T13:46:56.969Z,1034.69
2016-11-29T13:47:22.494Z,1034.67
2016-11-29T13:47:48.042Z,1034.67
2016-11-29T13:48:13.578Z,1034.68
2016-11-29T13:48:39.133Z,1034.67
2016-11-29T13:49:04.649Z,1034.71
2016-11-29T13:49:30.169Z,1034.69
2016-11-29T13:49:55.683Z,1034.66
2016-11-29T13:50:21.219Z,1034.72
2016-11-29T13:50:46.775Z,1034.72
2016-11-29T13:51:12.322Z,1034.71
2016-11-29T13:51:37.852Z,1034.7
2016-11-29T13:52:03.406Z,1034.73
2016-11-29T13:52:28.933Z,1034.68
2016-11-29T13:52:54.494Z,1034.68
2016-11-29T13:53:20.026Z,1034.71
2016-11-29T13:53:45.646Z,1034.66
2016-11-29T13:54:11.225Z,1034.65
2016-11-29T13:54:36.761Z,1034.63
2016-11-29T13:55:02.298Z,1034.62
2016-11-29T13:55:27.920Z,1034.65
2016-11-29T13:55:53.462Z,1034.64
2016-11-29T13:56:18.993Z,1034.64
2016-11-29T13:56:44.522Z,1034.62
2016-11-29T13:57:10.072Z,1034.58
2016-11-29T13:57:35.611Z,1034.57
2016-11-29T13:58:01.141Z,1034.57
2016-11-29T13:58:26.693Z,1034.53
2016-11-29T13:58:52.220Z,1034.55
2016-11-29T13:59:17.745Z,1034.53
2016-11-29T13:59:43.307Z,1034.53
2016-11-29T14:00:08.831Z,1034.54
2016-11-29T14:00:34.369Z,1034.58
2016-11-29T14:00:59.908Z,1034.59
2016-11-29T14:01:25.449Z,1034.56
2016-11-29T14:01:51.003Z,1034.57
2016-11-29T14:02:16.561Z,1034.57
2016-11-29T14:02:42.074Z,1034.58
2016-11-29T14:03:07.595Z,1034.58
2016-11-29T14:03:33.124Z,1034.6
2016-11-29T14:03:58.694Z,1034.61
2016-11-29T14:04:24.268Z,1034.58
2016-11-29T14:04:49.863Z,1034.61
2016-11-29T14:05:15.357Z,1034.61
2016-11-29T14:05:40.895Z,1034.55
2016-11-29T14:06:06.427Z,1034.57
2016-11-29T14:06:31.974Z,1034.59
2016-11-29T14:06:57.539Z,1034.58
2016-11-29T14:07:23.135Z,1034.56
2016-11-29T14:07:48.664Z,1034.57
2016-11-29T14:08:14.192Z,1034.57
2016-11-29T14:08:39.771Z,1034.6
2016-11-29T14:09:05.297Z,1034.64
2016-11-29T14:09:30.833Z,1034.63
2016-11-29T14:09:56.393Z,1034.6
2016-11-29T14:10:21.955Z,1034.6
2016-11-29T14:10:47.488Z,1034.62
2016-11-29T14:11:13.027Z,1034.59
2016-11-29T14:11:38.561Z,1034.6
2016-11-29T14:12:04.080Z,1034.61
2016-11-29T14:12:29.667Z,1034.58
2016-11-29T14:12:55.265Z,1034.57
2016-11-29T14:13:20.793Z,1034.58
2016-11-29T14:13:46.328Z,1034.56
2016-11-29T14:14:11.883Z,1034.55
2016-11-29T14:14:37.405Z,1034.53
2016-11-29T14:15:03.055Z,1034.56
2016-11-29T14:15:28.588Z,1034.58
2016-11-29T14:15:54.155Z,1034.57
2016-11-29T14:16:19.819Z,1034.55
2016-11-29T14:16:45.383Z,1034.55
2016-11-29T14:17:10.943Z,1034.55
2016-11-29T14:17:36.476Z,1034.56
2016-11-29T14:18:02.017Z,1034.54
2016-11-29T14:18:27.542Z,1034.58
2016-11-29T14:18:53.102Z,1034.62
2016-11-29T14:19:18.640Z,1034.55
2016-11-29T14:19:44.184Z,1034.58
2016-11-29T14:20:09.730Z,1034.58
2016-11-29T14:21:12.940Z,1034.58
2016-11-29T14:21:38.481Z,1034.58
2016-11-29T14:22:04.061Z,1034.6
2016-11-29T14:22:29.607Z,1034.6
2016-11-29T14:22:55.144Z,1034.6
2016-11-29T14:23:20.714Z,1034.59
2016-11-29T14:23:46.231Z,1034.57
2016-11-29T14:24:11.786Z,1034.52
2016-11-29T14:24:37.343Z,1034.54
2016-11-29T14:25:02.865Z,1034.5
2016-11-29T14:25:28.417Z,1034.5
2016-11-29T14:25:53.954Z,1034.52
2016-11-29T14:26:19.556Z,1034.47
2016-11-29T14:26:45.200Z,1034.5
2016-11-29T14:27:10.736Z,1034.49
2016-11-29T14:27:36.278Z,1034.49
2016-11-29T14:28:01.824Z,1034.48
2016-11-29T14:28:27.358Z,1034.48
2016-11-29T14:28:52.868Z,1034.49
2016-11-29T14:29:18.391Z,1034.49
2016-11-29T14:29:43.957Z,1034.48
2016-11-29T14:30:09.473Z,1034.5
2016-11-29T14:30:35.059Z,1034.58
2016-11-29T14:31:00.589Z,1034.54
2016-11-29T14:31:26.129Z,1034.52
2016-11-29T14:31:51.781Z,1034.55
2016-11-29T14:32:17.275Z,1034.55
2016-11-29T14:32:42.803Z,1034.5
2016-11-29T14:33:08.355Z,1034.53
2016-11-29T14:33:33.893Z,1034.52
2016-11-29T14:33:59.497Z,1034.51
2016-11-29T14:34:25.023Z,1034.52
2016-11-29T14:34:50.576Z,1034.49
2016-11-29T14:35:16.104Z,1034.51
2016-11-29T14:35:41.620Z,1034.51
2016-11-29T14:36:07.152Z,1034.51
2016-11-29T14:36:32.688Z,1034.48
2016-11-29T14:36:58.190Z,1034.45
2016-11-29T14:37:23.832Z,1034.47
2016-11-29T14:37:49.376Z,1034.49
2016-11-29T14:38:14.912Z,1034.47
2016-11-29T14:38:40.466Z,1034.45
2016-11-29T14:39:06.005Z,1034.44
2016-11-29T14:39:31.539Z,1034.43
2016-11-29T14:39:57.078Z,1034.44
2016-11-29T14:40:22.677Z,1034.45
2016-11-29T14:40:48.245Z,1034.41
2016-11-29T14:41:13.786Z,1034.44
2016-11-29T14:41:39.323Z,1034.4
2016-11-29T14:42:04.883Z,1034.43
2016-11-29T14:42:30.440Z,1034.41
2016-11-29T14:42:55.963Z,1034.45
2016-11-29T14:43:21.473Z,1034.45
2016-11-29T14:43:46.976Z,1034.42
2016-11-29T14:44:12.483Z,1034.42
2016-11-29T14:44:38.013Z,1034.38
2016-11-29T14:45:03.569Z,1034.39
2016-11-29T14:45:29.184Z,1034.35
2016-11-29T14:45:54.736Z,1034.35
2016-11-29T14:46:20.270Z,1034.39
2016-11-29T14:46:45.864Z,1034.35
2016-11-29T14:47:11.447Z,1034.41
2016-11-29T14:47:37.072Z,1034.36
2016-11-29T14:48:02.589Z,1034.34
2016-11-29T14:48:28.130Z,1034.33
2016-11-29T14:48:53.685Z,1034.32
2016-11-29T14:49:19.194Z,1034.34
2016-11-29T14:49:44.789Z,1034.38
2016-11-29T14:50:10.293Z,1034.33
2016-11-29T14:50:35.841Z,1034.33
2016-11-29T14:51:01.351Z,1034.35
2016-11-29T14:51:26.904Z,1034.3
2016-11-29T14:51:52.571Z,1034.31
2016-11-29T14:52:18.100Z,1034.35
2016-11-29T14:52:43.647Z,1034.36
2016-11-29T14:53:09.175Z,1034.39
2016-11-29T14:53:34.707Z,1034.39
2016-11-29T14:54:00.274Z,1034.36
2016-11-29T14:54:25.920Z,1034.35
2016-11-29T14:54:51.472Z,1034.37
2016-11-29T14:55:17.004Z,1034.38
2016-11-29T14:55:42.555Z,1034.37
2016-11-29T14:56:08.114Z,1034.36
2016-11-29T14:56:33.688Z,1034.34
2016-11-29T14:56:59.220Z,1034.34
2016-11-29T14:57:24.772Z,1034.3
2016-11-29T14:57:50.309Z,1034.3
2016-11-29T14:58:15.848Z,1034.33
2016-11-29T14:58:41.374Z,1034.3
2016-11-29T14:59:07.079Z,1034.31
2016-11-29T14:59:32.592Z,1034.3
2016-11-29T14:59:58.124Z,1034.32
2016-11-29T15:00:23.633Z,1034.28
2016-11-29T15:00:49.164Z,1034.29
2016-11-29T15:01:14.674Z,1034.29
2016-11-29T15:01:40.232Z,1034.29
2016-11-29T15:02:05.773Z,1034.27
2016-11-29T15:02:31.330Z,1034.27
2016-11-29T15:02:56.825Z,1034.25
2016-11-29T15:03:22.365Z,1034.23
2016-11-29T15:03:47.906Z,1034.21
2016-11-29T15:04:13.512Z,1034.28
2016-11-29T15:04:39.094Z,1034.2
2016-11-29T15:05:04.613Z,1034.29
2016-11-29T15:05:30.340Z,1034.25
2016-11-29T15:05:55.952Z,1034.25
2016-11-29T15:06:21.509Z,1034.27
2016-11-29T15:06:47.037Z,1034.25
2016-11-29T15:07:12.567Z,1034.26
2016-11-29T15:07:38.132Z,1034.26
2016-11-29T15:08:03.682Z,1034.25
2016-11-29T15:08:29.338Z,1034.24
2016-11-29T15:08:54.872Z,1034.21
2016-11-29T15:09:20.495Z,1034.24
2016-11-29T15:09:46.011Z,1034.24
2016-11-29T15:10:11.570Z,1034.22
2016-11-29T15:10:37.114Z,1034.23